Flight Track Log - Related Links

Times and Time Zones

All times are in EDT time to prevent confusion due to time zone crossing. See the AWE364 flight status page for this flight to view local times or setup timezone preferences in your user account.

Time Position Orientation Groundspeed Altitude Reporting Facility
EDT Latitude Longitude Course Direction KTS MPH feet Rate Location/Type
Tue 11:48:15 AM 47.5905 -117.5211 190° South  Level FlightAware Approximate
Tue 11:49:15 AM 47.4786 -117.4560 321° Northwest  Level FlightAware Approximate
Tue 11:50:41 AM 47.5425 -117.5336 161° South 229 264 5,800  Level Seattle Center
Tue 11:51:43 AM 47.4700 -117.4964 161° South 274 315 9,500 3,171 Climbing Seattle Center
Tue 11:52:44 AM 47.3814 -117.4511 161° South 313 360 12,300 2,803 Climbing Seattle Center
Tue 11:53:45 AM 47.2881 -117.4050 161° South 356 410 15,200 2,656 Climbing Seattle Center
Tue 11:54:46 AM 47.1892 -117.3550 163° South 372 428 17,700 2,459 Climbing Seattle Center
Tue 11:55:47 AM 47.0939 -117.3119 161° South 383 441 20,200 2,459 Climbing Seattle Center
Tue 11:56:48 AM 46.9844 -117.2564 161° South 406 467 22,700 2,115 Climbing Seattle Center
Tue 11:57:49 AM 46.8739 -117.2017 162° South 417 480 24,500 1,854 Climbing Seattle Center
Tue 11:58:51 AM 46.7581 -117.1461 161° South 433 498 26,500 1,951 Climbing Seattle Center
Tue 11:59:52 AM 46.6167 -117.0772 161° South 446 513 28,500 1,820 Climbing Seattle Center
Tue 12:00:53 PM 46.4953 -117.0175 162° South 457 526 30,200 1,377 Climbing Seattle Center
Tue 12:01:54 PM 46.4031 -116.9747 161° South 461 531 31,300 1,475 Climbing Seattle Center
Tue 12:02:55 PM 46.2425 -116.8956 162° South 473 544 33,200 1,623 Climbing Seattle Center
Tue 12:03:56 PM 46.1217 -116.8381 175° South 477 549 34,600 1,610 Climbing Seattle Center
Tue 12:04:58 PM 45.9808 -116.8214 176° South 456 525 36,500 1,415 Climbing Seattle Center
Tue 12:05:59 PM 45.8631 -116.8083 172° South 444 511 37,500 787 Climbing Seattle Center
Tue 12:07:00 PM 45.7419 -116.7842 156° South 455 524 38,100 738 Climbing Seattle Center
Tue 12:08:01 PM 45.6058 -116.6975 155° Southeast 478 550 39,000 443 Climbing Seattle Center
Tue 12:09:02 PM 45.4900 -116.6217 155° Southeast 479 551 39,000  Level Seattle Center
Tue 12:10:03 PM 45.3547 -116.5328 154° Southeast 480 552 39,000  Level Seattle Center
Tue 12:11:05 PM 45.2406 -116.4553 156° South 477 549 39,000  Level Seattle Center
Tue 12:12:06 PM 45.1253 -116.3811 155° Southeast 476 548 39,000 49 Level Seattle Center
Tue 12:13:07 PM 44.9903 -116.2931 155° Southeast 477 549 39,100  Climbing Seattle Center
Tue 12:14:08 PM 44.8764 -116.2186 155° Southeast 473 544 39,000 -47 Descending Seattle Center
Tue 12:15:14 PM 44.7431 -116.1314 156° South 472 543 39,000  Level Salt Lake Center
Tue 12:16:16 PM 44.6239 -116.0575 156° South 480 552 39,000 48 Level Salt Lake Center
Tue 12:17:18 PM 44.4867 -115.9700 154° Southeast 476 548 39,100  Climbing Salt Lake Center
Tue 12:18:20 PM 44.3706 -115.8917 155° Southeast 474 545 39,000 -48 Descending Salt Lake Center
Tue 12:19:22 PM 44.2539 -115.8169 156° South 477 549 39,000  Level Salt Lake Center
Tue 12:20:24 PM 44.1169 -115.7331 155° Southeast 479 551 39,000  Level Salt Lake Center
Tue 12:21:26 PM 44.0042 -115.6611 156° South 469 540 39,000  Level Salt Lake Center
Tue 12:22:28 PM 43.8722 -115.5794 156° South 464 534 39,000  Level Salt Lake Center
Tue 12:23:30 PM 43.7603 -115.5097 156° South 462 532 39,000  Level Salt Lake Center
Tue 12:24:32 PM 43.6278 -115.4269 156° South 465 535 39,000 48 Level Salt Lake Center
Tue 12:25:34 PM 43.5133 -115.3572 156° South 469 540 39,100  Climbing Salt Lake Center
Tue 12:26:36 PM 43.3817 -115.2758 156° South 465 535 39,000 -48 Descending Salt Lake Center
Tue 12:27:38 PM 43.2700 -115.2069 156° South 461 531 39,000  Level Salt Lake Center
Tue 12:28:40 PM 43.1592 -115.1392 156° South 457 526 39,000  Level Salt Lake Center
Tue 12:29:42 PM 43.0303 -115.0619 156° South 454 522 39,000  Level Salt Lake Center
Tue 12:30:44 PM 42.9206 -114.9953 156° South 451 519 39,000 -48 Level Salt Lake Center
Tue 12:31:46 PM 42.7928 -114.9175 164° South 450 518 38,900  Descending Salt Lake Center
Tue 12:32:48 PM 42.6792 -114.8739 175° South 443 510 39,000 48 Climbing Salt Lake Center
Tue 12:33:50 PM 42.5547 -114.8581 176° South 440 506 39,000  Level Salt Lake Center
Tue 12:34:52 PM 42.4317 -114.8453 176° South 441 507 39,000  Level Salt Lake Center
Tue 12:35:54 PM 42.2872 -114.8308 176° South 442 509 39,000  Level Salt Lake Center
Tue 12:36:56 PM 42.1642 -114.8178 176° South 440 506 39,000 -48 Level Salt Lake Center
Tue 12:37:58 PM 42.0392 -114.8072 176° South 438 504 38,900  Descending Salt Lake Center
Tue 12:39:00 PM 41.9225 -114.7950 176° South 438 504 39,000 97 Climbing Salt Lake Center
Tue 12:40:02 PM 41.7864 -114.7825 176° South 437 503 39,100  Climbing Salt Lake Center
Tue 12:41:04 PM 41.6717 -114.7711 176° South 433 498 39,000 -48 Descending Salt Lake Center
Tue 12:42:06 PM 41.5589 -114.7594 176° South 424 488 39,000  Level Salt Lake Center
Tue 12:43:08 PM 41.4203 -114.7467 176° South 424 488 39,000  Level Salt Lake Center
Tue 12:44:10 PM 41.2997 -114.7350 176° South 428 493 39,000 48 Level Salt Lake Center
Tue 12:45:12 PM 41.1792 -114.7231 176° South 430 495 39,100  Climbing Salt Lake Center
Tue 12:46:13 PM 41.0569 -114.7111 176° South 434 499 39,000 -98 Descending Salt Lake Center
Tue 12:47:15 PM 40.9303 -114.6997 176° South 431 496 38,900 -48 Descending Salt Lake Center
Tue 12:48:17 PM 40.8189 -114.6883 176° South 428 493 38,900 48 Level Salt Lake Center
Tue 12:49:19 PM 40.6992 -114.6769 176° South 428 493 39,000 97 Climbing Salt Lake Center
Tue 12:50:21 PM 40.5592 -114.6653 176° South 428 493 39,100  Climbing Salt Lake Center
Tue 12:51:23 PM 40.4369 -114.6531 176° South 433 498 39,000 -48 Descending Salt Lake Center
Tue 12:52:25 PM 40.3156 -114.6411 176° South 434 499 39,000  Level Salt Lake Center
Tue 12:53:26 PM 40.1925 -114.6306 176° South 437 503 39,000  Level Salt Lake Center
Tue 12:54:28 PM 40.0706 -114.6186 176° South 437 503 39,000  Level Salt Lake Center
Tue 12:55:30 PM 39.9478 -114.6064 176° South 437 503 39,000  Level Salt Lake Center
Tue 12:56:32 PM 39.8250 -114.5956 176° South 438 504 39,000 -194 Level Salt Lake Center
Tue 12:57:34 PM 39.6947 -114.5831 176° South 441 507 38,600 -919 Descending Salt Lake Center
Tue 12:58:36 PM 39.5783 -114.5731 176° South 438 504 37,100 -1,268 Descending Salt Lake Center
Tue 12:59:37 PM 39.4331 -114.5611 171° South 466 536 36,000 -780 Descending Salt Lake Center
Tue 01:00:39 PM 39.3094 -114.5356 155° Southeast 470 541 35,500 -484 Descending Salt Lake Center
Tue 01:01:41 PM 39.1769 -114.4556 148° Southeast 492 566 35,000 -242 Descending Salt Lake Center
Tue 01:02:43 PM 39.0600 -114.3600 149° Southeast 490 564 35,000  Level Salt Lake Center
Tue 01:03:44 PM 38.9422 -114.2681 149° Southeast 489 563 35,000 -49 Level Salt Lake Center
Tue 01:04:46 PM 38.8233 -114.1753 149° Southeast 491 565 34,900  Descending Salt Lake Center
Tue 01:05:48 PM 38.7061 -114.0856 149° Southeast 486 559 35,000 48 Climbing Salt Lake Center
Tue 01:06:50 PM 38.5875 -113.9958 148° Southeast 486 559 35,000  Level Salt Lake Center
Tue 01:07:52 PM 38.4694 -113.9028 149° Southeast 488 562 35,000  Level Salt Lake Center
Tue 01:08:54 PM 38.3533 -113.8150 150° Southeast 481 554 35,000  Level Salt Lake Center
Tue 01:09:55 PM 38.2144 -113.7111 150° Southeast 477 549 35,000  Level Salt Lake Center
Tue 01:10:57 PM 38.0983 -113.6244 149° Southeast 477 549 35,000  Level Salt Lake Center
Tue 01:11:59 PM 37.9822 -113.5369 152° Southeast 478 550 35,000  Level Salt Lake Center
Tue 01:13:01 PM 37.8636 -113.4569 155° Southeast 477 549 35,000  Level Salt Lake Center
Tue 01:14:02 PM 37.7453 -113.3858 154° Southeast 468 539 35,000 -390 Level Salt Lake Center
Tue 01:15:04 PM 37.6278 -113.3147 154° Southeast 467 537 34,200 -871 Descending Salt Lake Center
Tue 01:16:06 PM 37.5114 -113.2447 154° Southeast 463 533 33,200 -581 Descending Salt Lake Center
Tue 01:17:08 PM 37.3953 -113.1744 155° Southeast 462 532 33,000 -98 Descending Salt Lake Center
Tue 01:18:09 PM 37.2781 -113.1044 155° Southeast 463 533 33,000  Level Salt Lake Center
Tue 01:19:11 PM 37.1606 -113.0342 155° Southeast 464 534 33,000  Level Salt Lake Center
Tue 01:20:06 PM 37.0494 -112.9686 155° Southeast 467 537 33,000  Level Los Angeles Center
Tue 01:21:06 PM 36.9222 -112.8933 154° Southeast 467 537 33,000  Level Los Angeles Center
Tue 01:22:06 PM 36.8100 -112.8253 155° Southeast 461 531 33,000  Level Los Angeles Center
Tue 01:23:06 PM 36.6956 -112.7575 155° Southeast 461 531 33,000  Level Los Angeles Center
Tue 01:24:06 PM 36.5789 -112.6900 155° Southeast 461 531 33,000  Level Los Angeles Center
Tue 01:25:06 PM 36.4642 -112.6228 155° Southeast 456 525 33,000  Level Los Angeles Center
Tue 01:26:08 PM 36.3497 -112.5556 157° South 456 525 33,000 -50 Level Los Angeles Center
Tue 01:27:06 PM 36.2564 -112.5056 162° South 456 525 32,900 -708 Descending Los Angeles Center
Tue 01:29:06 PM 36.0094 -112.4064 181° South 444 511 30,900 -1,000 Descending Los Angeles Center
Tue 01:30:06 PM 35.8864 -112.4094 182° South 437 503 29,900 -562 Descending Los Angeles Center
Tue 01:32:29 PM 35.5983 -112.4244 183° South 439 505 29,000 -266 Descending Albuquerque Center
Tue 01:33:29 PM 35.4792 -112.4319 179° South 439 505 29,000  Level Albuquerque Center
Tue 01:34:29 PM 35.3581 -112.4294 170° South 444 511 29,000  Level Albuquerque Center
Tue 01:35:29 PM 35.2342 -112.4014 170° South 444 511 29,000 -450 Level Albuquerque Center
Tue 01:36:29 PM 35.1122 -112.3758 169° South 444 511 28,100 -1,200 Descending Albuquerque Center
Tue 01:37:29 PM 34.9922 -112.3483 171° South 444 511 26,600 -1,500 Descending Albuquerque Center
Tue 01:38:29 PM 34.8742 -112.3258 169° South 444 511 25,100 -1,500 Descending Albuquerque Center
Tue 01:39:29 PM 34.7586 -112.2986 170° South 439 505 23,600 -1,050 Descending Albuquerque Center
Tue 01:40:29 PM 34.6469 -112.2742 170° South 427 491 23,000 -1,000 Descending Albuquerque Center
Tue 01:41:29 PM 34.5353 -112.2497 171° South 422 486 21,600 -1,700 Descending Albuquerque Center
Tue 01:42:29 PM 34.4275 -112.2283 168° South 404 465 19,600 -2,250 Descending Albuquerque Center
Tue 01:43:29 PM 34.3181 -112.1992 168° South 390 449 17,100 -2,250 Descending Albuquerque Center
Tue 01:44:29 PM 34.2211 -112.1733 168° South 369 425 15,100 -1,600 Descending Albuquerque Center
Tue 01:45:29 PM 34.1322 -112.1506 176° South 350 403 13,900 -1,400 Descending Albuquerque Center
Tue 01:46:29 PM 34.0492 -112.1433 183° South 326 375 12,300 -1,600 Descending Albuquerque Center
Tue 01:47:29 PM 33.9675 -112.1486 188° South 310 357 10,700 -1,550 Descending Albuquerque Center
Tue 01:48:29 PM 33.8878 -112.1617 192° South 300 345 9,200 -968 Descending Albuquerque Center
Tue 01:50:35 PM 33.7333 -112.2000 180° South 233 268 7,700 -714 Descending Phoenix TRACON
Tue 01:51:34 PM 33.6833 -112.2000 192° South 231 266 7,000 -842 Descending Phoenix TRACON
Tue 01:52:29 PM 33.6167 -112.2167 192° South 225 259 6,100 -835 Descending Phoenix TRACON
Tue 01:53:29 PM 33.5500 -112.2333 180° South 225 259 5,400 -800 Descending Phoenix TRACON
Tue 01:54:29 PM 33.5000 -112.2333 140° Southeast 216 249 4,500 -810 Descending Phoenix TRACON
Tue 01:55:35 PM 33.4500 -112.1833 140° Southeast 190 219 3,700 -727 Descending Phoenix TRACON

Login

Don't have an account? Register now (free) for customized features, flight alerts, and more!